sensor_id;sensor_type;location;lat;lon;timestamp;temperature;humidity
52103;DHT22;38101;53.126;6.878;2023-04-03T00:02:10;3.90;99.90
52103;DHT22;38101;53.126;6.878;2023-04-03T00:04:36;3.80;99.90
52103;DHT22;38101;53.126;6.878;2023-04-03T00:07:01;3.80;99.90
52103;DHT22;38101;53.126;6.878;2023-04-03T00:09:27;3.80;99.90
52103;DHT22;38101;53.126;6.878;2023-04-03T00:11:53;3.80;99.90
52103;DHT22;38101;53.126;6.878;2023-04-03T00:14:19;3.80;99.90
52103;DHT22;38101;53.126;6.878;2023-04-03T00:16:45;3.80;99.90
52103;DHT22;38101;53.126;6.878;2023-04-03T00:19:10;3.70;99.90
52103;DHT22;38101;53.126;6.878;2023-04-03T00:21:37;3.70;99.90
52103;DHT22;38101;53.126;6.878;2023-04-03T00:24:03;3.70;99.90
52103;DHT22;38101;53.126;6.878;2023-04-03T00:26:29;3.70;99.90
52103;DHT22;38101;53.126;6.878;2023-04-03T00:28:55;3.60;99.90
52103;DHT22;38101;53.126;6.878;2023-04-03T00:31:21;3.60;99.90
52103;DHT22;38101;53.126;6.878;2023-04-03T00:33:47;3.60;99.90
52103;DHT22;38101;53.126;6.878;2023-04-03T00:36:13;3.60;99.90
52103;DHT22;38101;53.126;6.878;2023-04-03T00:38:39;3.60;99.90
52103;DHT22;38101;53.126;6.878;2023-04-03T00:41:05;3.50;99.90
52103;DHT22;38101;53.126;6.878;2023-04-03T00:43:31;3.50;99.90
52103;DHT22;38101;53.126;6.878;2023-04-03T00:45:58;3.50;99.90
52103;DHT22;38101;53.126;6.878;2023-04-03T00:48:43;3.50;99.90
52103;DHT22;38101;53.126;6.878;2023-04-03T00:51:16;3.50;99.90
52103;DHT22;38101;53.126;6.878;2023-04-03T00:53:49;3.40;99.90
52103;DHT22;38101;53.126;6.878;2023-04-03T00:56:18;3.40;99.90
52103;DHT22;38101;53.126;6.878;2023-04-03T00:58:53;3.40;99.90
52103;DHT22;38101;53.126;6.878;2023-04-03T01:01:25;3.40;99.90
52103;DHT22;38101;53.126;6.878;2023-04-03T01:03:51;3.40;99.90
52103;DHT22;38101;53.126;6.878;2023-04-03T01:06:21;3.40;99.90
52103;DHT22;38101;53.126;6.878;2023-04-03T01:08:50;3.30;99.90
52103;DHT22;38101;53.126;6.878;2023-04-03T01:11:16;3.30;99.90
52103;DHT22;38101;53.126;6.878;2023-04-03T01:13:41;3.30;99.90
52103;DHT22;38101;53.126;6.878;2023-04-03T01:16:08;3.30;99.90
52103;DHT22;38101;53.126;6.878;2023-04-03T01:18:36;3.30;99.90
52103;DHT22;38101;53.126;6.878;2023-04-03T01:26:02;3.20;99.90
52103;DHT22;38101;53.126;6.878;2023-04-03T01:28:32;3.10;99.90
52103;DHT22;38101;53.126;6.878;2023-04-03T01:33:39;3.10;99.90
52103;DHT22;38101;53.126;6.878;2023-04-03T01:36:05;3.10;99.90
52103;DHT22;38101;53.126;6.878;2023-04-03T01:38:31;3.10;99.90
52103;DHT22;38101;53.126;6.878;2023-04-03T01:40:57;3.10;99.90
52103;DHT22;38101;53.126;6.878;2023-04-03T01:43:23;3.10;99.90
52103;DHT22;38101;53.126;6.878;2023-04-03T01:45:48;3.00;99.90
52103;DHT22;38101;53.126;6.878;2023-04-03T01:48:15;3.00;99.90
52103;DHT22;38101;53.126;6.878;2023-04-03T01:50:41;3.00;99.90
52103;DHT22;38101;53.126;6.878;2023-04-03T01:53:07;2.90;99.90
52103;DHT22;38101;53.126;6.878;2023-04-03T01:55:33;2.90;99.90
52103;DHT22;38101;53.126;6.878;2023-04-03T01:57:59;2.80;99.90
52103;DHT22;38101;53.126;6.878;2023-04-03T02:00:25;2.80;99.90
52103;DHT22;38101;53.126;6.878;2023-04-03T02:02:52;2.80;99.90
52103;DHT22;38101;53.126;6.878;2023-04-03T02:05:17;2.80;99.90
52103;DHT22;38101;53.126;6.878;2023-04-03T02:07:43;2.80;99.90
52103;DHT22;38101;53.126;6.878;2023-04-03T02:10:09;2.70;99.90
52103;DHT22;38101;53.126;6.878;2023-04-03T02:12:35;2.70;99.90
52103;DHT22;38101;53.126;6.878;2023-04-03T02:15:01;2.70;99.90
52103;DHT22;38101;53.126;6.878;2023-04-03T02:17:26;2.70;99.90
52103;DHT22;38101;53.126;6.878;2023-04-03T02:19:52;2.70;99.90
52103;DHT22;38101;53.126;6.878;2023-04-03T02:22:18;2.70;99.90
52103;DHT22;38101;53.126;6.878;2023-04-03T02:24:44;2.70;99.90
52103;DHT22;38101;53.126;6.878;2023-04-03T02:27:10;2.60;99.90
52103;DHT22;38101;53.126;6.878;2023-04-03T02:29:35;2.60;99.90
52103;DHT22;38101;53.126;6.878;2023-04-03T02:32:01;2.60;99.90
52103;DHT22;38101;53.126;6.878;2023-04-03T02:34:27;2.60;99.90
52103;DHT22;38101;53.126;6.878;2023-04-03T02:36:52;2.60;99.90
52103;DHT22;38101;53.126;6.878;2023-04-03T02:39:18;2.60;99.90
52103;DHT22;38101;53.126;6.878;2023-04-03T02:41:44;2.50;99.90
52103;DHT22;38101;53.126;6.878;2023-04-03T02:44:10;2.50;99.90
52103;DHT22;38101;53.126;6.878;2023-04-03T02:46:36;2.50;99.90
52103;DHT22;38101;53.126;6.878;2023-04-03T02:49:03;2.50;99.90
52103;DHT22;38101;53.126;6.878;2023-04-03T02:51:29;2.50;99.90
52103;DHT22;38101;53.126;6.878;2023-04-03T02:53:54;2.50;99.90
52103;DHT22;38101;53.126;6.878;2023-04-03T02:56:20;2.50;99.90
52103;DHT22;38101;53.126;6.878;2023-04-03T02:58:46;2.50;99.90
52103;DHT22;38101;53.126;6.878;2023-04-03T03:01:12;2.40;99.90
52103;DHT22;38101;53.126;6.878;2023-04-03T03:03:38;2.40;99.90
52103;DHT22;38101;53.126;6.878;2023-04-03T03:06:06;2.40;99.90
52103;DHT22;38101;53.126;6.878;2023-04-03T03:08:32;2.40;99.90
52103;DHT22;38101;53.126;6.878;2023-04-03T03:10:58;2.40;99.90
52103;DHT22;38101;53.126;6.878;2023-04-03T03:13:23;2.40;99.90
52103;DHT22;38101;53.126;6.878;2023-04-03T03:15:49;2.30;99.90
52103;DHT22;38101;53.126;6.878;2023-04-03T03:18:15;2.20;99.90
52103;DHT22;38101;53.126;6.878;2023-04-03T03:20:41;2.10;99.90
52103;DHT22;38101;53.126;6.878;2023-04-03T03:23:06;2.00;99.90
52103;DHT22;38101;53.126;6.878;2023-04-03T03:25:32;2.00;99.90
52103;DHT22;38101;53.126;6.878;2023-04-03T03:27:58;1.90;99.90
52103;DHT22;38101;53.126;6.878;2023-04-03T03:30:23;1.90;99.90
52103;DHT22;38101;53.126;6.878;2023-04-03T03:32:49;1.90;99.90
52103;DHT22;38101;53.126;6.878;2023-04-03T03:35:15;1.90;99.90
52103;DHT22;38101;53.126;6.878;2023-04-03T03:37:41;1.80;99.90
52103;DHT22;38101;53.126;6.878;2023-04-03T03:40:07;1.80;99.90
52103;DHT22;38101;53.126;6.878;2023-04-03T03:42:33;1.80;99.90
52103;DHT22;38101;53.126;6.878;2023-04-03T03:44:58;1.80;99.90
52103;DHT22;38101;53.126;6.878;2023-04-03T03:47:24;1.70;99.90
52103;DHT22;38101;53.126;6.878;2023-04-03T03:49:50;1.70;99.90
52103;DHT22;38101;53.126;6.878;2023-04-03T03:52:16;1.60;99.90
52103;DHT22;38101;53.126;6.878;2023-04-03T03:54:42;1.60;99.90
52103;DHT22;38101;53.126;6.878;2023-04-03T03:57:07;1.70;99.90
52103;DHT22;38101;53.126;6.878;2023-04-03T03:59:33;1.60;99.90
52103;DHT22;38101;53.126;6.878;2023-04-03T04:01:59;1.70;99.90
52103;DHT22;38101;53.126;6.878;2023-04-03T04:04:25;1.60;99.90
52103;DHT22;38101;53.126;6.878;2023-04-03T04:06:50;1.60;99.90
52103;DHT22;38101;53.126;6.878;2023-04-03T04:09:17;1.60;99.90
52103;DHT22;38101;53.126;6.878;2023-04-03T04:11:43;1.60;99.90
52103;DHT22;38101;53.126;6.878;2023-04-03T04:14:08;1.60;99.90
52103;DHT22;38101;53.126;6.878;2023-04-03T04:16:35;1.50;99.90
52103;DHT22;38101;53.126;6.878;2023-04-03T04:19:01;1.50;99.90
52103;DHT22;38101;53.126;6.878;2023-04-03T04:21:27;1.50;99.90
52103;DHT22;38101;53.126;6.878;2023-04-03T04:23:52;1.50;99.90
52103;DHT22;38101;53.126;6.878;2023-04-03T04:26:18;1.50;99.90
52103;DHT22;38101;53.126;6.878;2023-04-03T04:28:44;1.50;99.90
52103;DHT22;38101;53.126;6.878;2023-04-03T04:31:09;1.50;99.90
52103;DHT22;38101;53.126;6.878;2023-04-03T04:33:35;1.50;99.90
52103;DHT22;38101;53.126;6.878;2023-04-03T04:36:01;1.50;99.90
52103;DHT22;38101;53.126;6.878;2023-04-03T04:38:26;1.50;99.90
52103;DHT22;38101;53.126;6.878;2023-04-03T04:40:52;1.50;99.90
52103;DHT22;38101;53.126;6.878;2023-04-03T04:43:18;1.60;99.90
52103;DHT22;38101;53.126;6.878;2023-04-03T04:45:43;1.50;99.90
52103;DHT22;38101;53.126;6.878;2023-04-03T04:48:09;1.40;99.90
52103;DHT22;38101;53.126;6.878;2023-04-03T04:50:35;1.40;99.90
52103;DHT22;38101;53.126;6.878;2023-04-03T04:53:00;1.40;99.90
52103;DHT22;38101;53.126;6.878;2023-04-03T04:55:26;1.30;99.90
52103;DHT22;38101;53.126;6.878;2023-04-03T04:57:52;1.30;99.90
52103;DHT22;38101;53.126;6.878;2023-04-03T05:00:18;1.30;99.90
52103;DHT22;38101;53.126;6.878;2023-04-03T05:02:44;1.30;99.90
52103;DHT22;38101;53.126;6.878;2023-04-03T05:05:09;1.30;99.90
52103;DHT22;38101;53.126;6.878;2023-04-03T05:07:35;1.30;99.90
52103;DHT22;38101;53.126;6.878;2023-04-03T05:10:02;1.30;99.90
52103;DHT22;38101;53.126;6.878;2023-04-03T05:12:28;1.20;99.90
52103;DHT22;38101;53.126;6.878;2023-04-03T05:14:53;1.20;99.90
52103;DHT22;38101;53.126;6.878;2023-04-03T05:17:19;1.20;99.90
52103;DHT22;38101;53.126;6.878;2023-04-03T05:19:45;1.20;99.90
52103;DHT22;38101;53.126;6.878;2023-04-03T05:22:11;1.20;99.90
52103;DHT22;38101;53.126;6.878;2023-04-03T05:24:37;1.20;99.90
52103;DHT22;38101;53.126;6.878;2023-04-03T05:27:03;1.10;99.90
52103;DHT22;38101;53.126;6.878;2023-04-03T05:29:29;1.10;99.90
52103;DHT22;38101;53.126;6.878;2023-04-03T05:31:54;1.10;99.90
52103;DHT22;38101;53.126;6.878;2023-04-03T05:34:21;1.20;99.90
52103;DHT22;38101;53.126;6.878;2023-04-03T05:36:46;1.20;99.90
52103;DHT22;38101;53.126;6.878;2023-04-03T05:39:12;1.20;99.90
52103;DHT22;38101;53.126;6.878;2023-04-03T05:41:38;1.20;99.90
52103;DHT22;38101;53.126;6.878;2023-04-03T05:44:03;1.20;99.90
52103;DHT22;38101;53.126;6.878;2023-04-03T05:46:29;1.20;99.90
52103;DHT22;38101;53.126;6.878;2023-04-03T05:48:55;1.30;99.90
52103;DHT22;38101;53.126;6.878;2023-04-03T05:51:28;1.30;99.90
52103;DHT22;38101;53.126;6.878;2023-04-03T05:54:06;1.30;99.90
52103;DHT22;38101;53.126;6.878;2023-04-03T05:56:32;1.40;99.90
52103;DHT22;38101;53.126;6.878;2023-04-03T05:58:58;1.40;99.90
52103;DHT22;38101;53.126;6.878;2023-04-03T06:01:24;1.40;99.90
52103;DHT22;38101;53.126;6.878;2023-04-03T06:03:49;1.50;99.90
52103;DHT22;38101;53.126;6.878;2023-04-03T06:06:15;1.50;99.90
52103;DHT22;38101;53.126;6.878;2023-04-03T06:08:41;1.50;99.90
52103;DHT22;38101;53.126;6.878;2023-04-03T06:11:07;1.60;99.90
52103;DHT22;38101;53.126;6.878;2023-04-03T06:13:34;1.60;99.90
52103;DHT22;38101;53.126;6.878;2023-04-03T06:16:00;1.60;99.90
52103;DHT22;38101;53.126;6.878;2023-04-03T06:18:26;1.60;99.90
52103;DHT22;38101;53.126;6.878;2023-04-03T06:20:52;1.70;99.90
52103;DHT22;38101;53.126;6.878;2023-04-03T06:23:17;1.70;99.90
52103;DHT22;38101;53.126;6.878;2023-04-03T06:25:43;1.80;99.90
52103;DHT22;38101;53.126;6.878;2023-04-03T06:28:09;1.80;99.90
52103;DHT22;38101;53.126;6.878;2023-04-03T06:30:36;1.80;99.90
52103;DHT22;38101;53.126;6.878;2023-04-03T06:33:02;1.90;99.90
52103;DHT22;38101;53.126;6.878;2023-04-03T06:35:28;1.90;99.90
52103;DHT22;38101;53.126;6.878;2023-04-03T06:37:56;1.90;99.90
52103;DHT22;38101;53.126;6.878;2023-04-03T06:40:24;2.00;99.90
52103;DHT22;38101;53.126;6.878;2023-04-03T06:42:50;2.00;99.90
52103;DHT22;38101;53.126;6.878;2023-04-03T06:45:17;2.00;99.90
52103;DHT22;38101;53.126;6.878;2023-04-03T06:47:43;2.10;99.90
52103;DHT22;38101;53.126;6.878;2023-04-03T06:50:10;2.10;99.90
52103;DHT22;38101;53.126;6.878;2023-04-03T06:52:37;2.10;99.90
52103;DHT22;38101;53.126;6.878;2023-04-03T06:55:03;2.10;99.90
52103;DHT22;38101;53.126;6.878;2023-04-03T06:57:29;2.10;99.90
52103;DHT22;38101;53.126;6.878;2023-04-03T06:59:55;2.10;99.90
52103;DHT22;38101;53.126;6.878;2023-04-03T07:02:21;2.20;99.90
52103;DHT22;38101;53.126;6.878;2023-04-03T07:04:47;2.20;99.90
52103;DHT22;38101;53.126;6.878;2023-04-03T07:07:13;2.30;99.90
52103;DHT22;38101;53.126;6.878;2023-04-03T07:09:39;2.30;99.90
52103;DHT22;38101;53.126;6.878;2023-04-03T07:12:04;2.40;99.90
52103;DHT22;38101;53.126;6.878;2023-04-03T07:14:30;2.40;99.90
52103;DHT22;38101;53.126;6.878;2023-04-03T07:16:56;2.40;99.90
52103;DHT22;38101;53.126;6.878;2023-04-03T07:19:22;2.40;99.90
52103;DHT22;38101;53.126;6.878;2023-04-03T07:21:49;2.50;99.90
52103;DHT22;38101;53.126;6.878;2023-04-03T07:24:15;2.50;99.90
52103;DHT22;38101;53.126;6.878;2023-04-03T07:26:41;2.50;99.90
52103;DHT22;38101;53.126;6.878;2023-04-03T07:29:07;2.60;99.90
52103;DHT22;38101;53.126;6.878;2023-04-03T07:31:32;2.60;99.90
52103;DHT22;38101;53.126;6.878;2023-04-03T07:33:59;2.60;99.90
52103;DHT22;38101;53.126;6.878;2023-04-03T07:36:25;2.70;99.90
52103;DHT22;38101;53.126;6.878;2023-04-03T07:38:50;2.70;99.90
52103;DHT22;38101;53.126;6.878;2023-04-03T07:41:18;2.70;99.90
52103;DHT22;38101;53.126;6.878;2023-04-03T07:43:45;2.80;99.90
52103;DHT22;38101;53.126;6.878;2023-04-03T07:46:12;2.80;99.90
52103;DHT22;38101;53.126;6.878;2023-04-03T07:48:38;2.90;99.90
52103;DHT22;38101;53.126;6.878;2023-04-03T07:51:04;3.00;99.90
52103;DHT22;38101;53.126;6.878;2023-04-03T07:53:31;3.00;99.90
52103;DHT22;38101;53.126;6.878;2023-04-03T07:55:58;3.10;99.90
52103;DHT22;38101;53.126;6.878;2023-04-03T07:58:24;3.10;99.90
52103;DHT22;38101;53.126;6.878;2023-04-03T08:00:51;3.20;99.90
52103;DHT22;38101;53.126;6.878;2023-04-03T08:03:17;3.20;99.90
52103;DHT22;38101;53.126;6.878;2023-04-03T08:05:46;3.30;99.90
52103;DHT22;38101;53.126;6.878;2023-04-03T08:08:15;3.30;99.90
52103;DHT22;38101;53.126;6.878;2023-04-03T08:10:41;3.40;99.90
52103;DHT22;38101;53.126;6.878;2023-04-03T08:13:09;3.40;99.90
52103;DHT22;38101;53.126;6.878;2023-04-03T08:15:35;3.50;99.90
52103;DHT22;38101;53.126;6.878;2023-04-03T08:18:02;3.50;99.90
52103;DHT22;38101;53.126;6.878;2023-04-03T08:20:28;3.60;99.90
52103;DHT22;38101;53.126;6.878;2023-04-03T08:22:54;3.60;99.90
52103;DHT22;38101;53.126;6.878;2023-04-03T08:25:20;3.70;99.90
52103;DHT22;38101;53.126;6.878;2023-04-03T08:27:46;3.70;99.90
52103;DHT22;38101;53.126;6.878;2023-04-03T08:30:12;3.80;99.90
52103;DHT22;38101;53.126;6.878;2023-04-03T08:32:38;3.80;99.90
52103;DHT22;38101;53.126;6.878;2023-04-03T08:35:07;4.00;99.90
52103;DHT22;38101;53.126;6.878;2023-04-03T08:37:36;4.00;99.90
52103;DHT22;38101;53.126;6.878;2023-04-03T08:40:04;4.00;99.90
52103;DHT22;38101;53.126;6.878;2023-04-03T08:50:19;4.20;99.90
52103;DHT22;38101;53.126;6.878;2023-04-03T08:52:56;4.30;99.90
52103;DHT22;38101;53.126;6.878;2023-04-03T08:55:27;4.30;99.90
52103;DHT22;38101;53.126;6.878;2023-04-03T09:03:38;4.50;99.90
52103;DHT22;38101;53.126;6.878;2023-04-03T09:06:07;4.60;99.90
52103;DHT22;38101;53.126;6.878;2023-04-03T09:13:57;4.70;99.90
52103;DHT22;38101;53.126;6.878;2023-04-03T09:19:18;4.80;99.90
52103;DHT22;38101;53.126;6.878;2023-04-03T09:21:46;4.90;99.90
52103;DHT22;38101;53.126;6.878;2023-04-03T09:24:14;4.90;99.90
52103;DHT22;38101;53.126;6.878;2023-04-03T09:29:15;5.10;99.90
52103;DHT22;38101;53.126;6.878;2023-04-03T09:31:44;5.10;99.90
52103;DHT22;38101;53.126;6.878;2023-04-03T09:34:23;5.20;99.90
52103;DHT22;38101;53.126;6.878;2023-04-03T09:36:54;5.30;99.90
52103;DHT22;38101;53.126;6.878;2023-04-03T09:39:28;5.40;99.90
52103;DHT22;38101;53.126;6.878;2023-04-03T09:44:29;5.40;99.90
52103;DHT22;38101;53.126;6.878;2023-04-03T09:46:55;5.50;99.90
52103;DHT22;38101;53.126;6.878;2023-04-03T09:49:21;5.60;99.90
52103;DHT22;38101;53.126;6.878;2023-04-03T09:51:47;5.70;99.90
52103;DHT22;38101;53.126;6.878;2023-04-03T09:54:29;5.70;99.90
52103;DHT22;38101;53.126;6.878;2023-04-03T09:57:00;5.70;99.90
52103;DHT22;38101;53.126;6.878;2023-04-03T09:59:28;5.70;99.90
52103;DHT22;38101;53.126;6.878;2023-04-03T10:04:45;5.90;99.90
52103;DHT22;38101;53.126;6.878;2023-04-03T10:07:38;6.00;99.90
52103;DHT22;38101;53.126;6.878;2023-04-03T10:10:26;6.00;99.90
52103;DHT22;38101;53.126;6.878;2023-04-03T10:13:14;6.10;99.90
52103;DHT22;38101;53.126;6.878;2023-04-03T10:15:55;6.10;99.90
52103;DHT22;38101;53.126;6.878;2023-04-03T10:18:58;6.20;99.90
52103;DHT22;38101;53.126;6.878;2023-04-03T10:21:50;6.30;99.90
52103;DHT22;38101;53.126;6.878;2023-04-03T10:26:54;6.40;99.90
52103;DHT22;38101;53.126;6.878;2023-04-03T10:34:44;6.70;99.90
52103;DHT22;38101;53.126;6.878;2023-04-03T10:43:02;6.90;99.90
52103;DHT22;38101;53.126;6.878;2023-04-03T10:45:51;6.90;99.90
52103;DHT22;38101;53.126;6.878;2023-04-03T10:53:56;7.10;99.90
52103;DHT22;38101;53.126;6.878;2023-04-03T10:59:32;7.30;99.90
52103;DHT22;38101;53.126;6.878;2023-04-03T11:05:17;7.50;99.90
52103;DHT22;38101;53.126;6.878;2023-04-03T11:07:52;7.60;99.90
52103;DHT22;38101;53.126;6.878;2023-04-03T11:10:23;7.70;99.90
52103;DHT22;38101;53.126;6.878;2023-04-03T11:13:01;7.80;99.90
52103;DHT22;38101;53.126;6.878;2023-04-03T11:15:30;7.80;99.90
52103;DHT22;38101;53.126;6.878;2023-04-03T11:18:04;7.80;99.90
52103;DHT22;38101;53.126;6.878;2023-04-03T11:20:32;7.80;99.90
52103;DHT22;38101;53.126;6.878;2023-04-03T11:25:41;8.00;99.90
52103;DHT22;38101;53.126;6.878;2023-04-03T11:28:17;8.00;99.90
52103;DHT22;38101;53.126;6.878;2023-04-03T11:36:08;8.30;99.90
52103;DHT22;38101;53.126;6.878;2023-04-03T11:38:42;8.30;99.90
52103;DHT22;38101;53.126;6.878;2023-04-03T11:41:09;8.40;99.90
52103;DHT22;38101;53.126;6.878;2023-04-03T11:43:42;8.50;99.70
52103;DHT22;38101;53.126;6.878;2023-04-03T11:46:08;8.70;99.90
52103;DHT22;38101;53.126;6.878;2023-04-03T11:53:54;9.10;97.30
52103;DHT22;38101;53.126;6.878;2023-04-03T12:04:12;9.60;99.00
52103;DHT22;38101;53.126;6.878;2023-04-03T12:07:12;9.70;98.80
52103;DHT22;38101;53.126;6.878;2023-04-03T12:12:41;10.00;98.80
52103;DHT22;38101;53.126;6.878;2023-04-03T12:15:26;10.10;97.60
52103;DHT22;38101;53.126;6.878;2023-04-03T12:21:15;10.20;96.70
52103;DHT22;38101;53.126;6.878;2023-04-03T12:29:26;10.40;96.80
52103;DHT22;38101;53.126;6.878;2023-04-03T12:37:56;10.50;96.50
52103;DHT22;38101;53.126;6.878;2023-04-03T12:48:27;10.70;94.90
52103;DHT22;38101;53.126;6.878;2023-04-03T12:50:54;10.80;95.60
52103;DHT22;38101;53.126;6.878;2023-04-03T12:53:24;10.80;95.10
52103;DHT22;38101;53.126;6.878;2023-04-03T12:56:18;10.90;95.70
52103;DHT22;38101;53.126;6.878;2023-04-03T12:58:44;10.90;93.20
52103;DHT22;38101;53.126;6.878;2023-04-03T13:01:13;11.10;96.40
52103;DHT22;38101;53.126;6.878;2023-04-03T13:03:43;11.20;95.00
52103;DHT22;38101;53.126;6.878;2023-04-03T13:06:27;11.20;94.40
52103;DHT22;38101;53.126;6.878;2023-04-03T13:08:59;11.20;95.20
52103;DHT22;38101;53.126;6.878;2023-04-03T13:11:27;11.30;95.60
52103;DHT22;38101;53.126;6.878;2023-04-03T13:14:04;11.40;95.30
52103;DHT22;38101;53.126;6.878;2023-04-03T13:16:33;11.40;92.40
52103;DHT22;38101;53.126;6.878;2023-04-03T13:18:58;11.50;94.00
52103;DHT22;38101;53.126;6.878;2023-04-03T13:21:30;11.50;94.00
52103;DHT22;38101;53.126;6.878;2023-04-03T13:24:01;11.50;93.80
52103;DHT22;38101;53.126;6.878;2023-04-03T13:26:31;11.60;92.70
52103;DHT22;38101;53.126;6.878;2023-04-03T13:29:31;11.60;94.20
52103;DHT22;38101;53.126;6.878;2023-04-03T13:31:59;11.50;93.30
52103;DHT22;38101;53.126;6.878;2023-04-03T13:34:28;11.60;93.80
52103;DHT22;38101;53.126;6.878;2023-04-03T13:36:58;11.60;93.90
52103;DHT22;38101;53.126;6.878;2023-04-03T13:41:54;11.60;94.50
52103;DHT22;38101;53.126;6.878;2023-04-03T13:44:28;11.70;93.40
52103;DHT22;38101;53.126;6.878;2023-04-03T13:49:34;11.70;92.20
52103;DHT22;38101;53.126;6.878;2023-04-03T13:52:01;11.80;92.80
52103;DHT22;38101;53.126;6.878;2023-04-03T13:54:34;11.80;93.20
52103;DHT22;38101;53.126;6.878;2023-04-03T13:57:01;11.80;93.30
52103;DHT22;38101;53.126;6.878;2023-04-03T13:59:30;11.80;93.60
52103;DHT22;38101;53.126;6.878;2023-04-03T14:04:55;11.90;91.50
52103;DHT22;38101;53.126;6.878;2023-04-03T14:07:23;12.00;92.90
52103;DHT22;38101;53.126;6.878;2023-04-03T14:09:50;11.90;91.90
52103;DHT22;38101;53.126;6.878;2023-04-03T14:12:34;12.00;93.70
52103;DHT22;38101;53.126;6.878;2023-04-03T14:15:07;12.00;92.40
52103;DHT22;38101;53.126;6.878;2023-04-03T14:17:37;12.00;93.40
52103;DHT22;38101;53.126;6.878;2023-04-03T14:20:03;12.10;93.50
52103;DHT22;38101;53.126;6.878;2023-04-03T14:22:32;12.10;93.50
52103;DHT22;38101;53.126;6.878;2023-04-03T14:24:58;12.10;93.10
52103;DHT22;38101;53.126;6.878;2023-04-03T14:27:39;12.10;93.40
52103;DHT22;38101;53.126;6.878;2023-04-03T14:30:09;12.10;92.60
52103;DHT22;38101;53.126;6.878;2023-04-03T14:32:35;12.10;92.20
52103;DHT22;38101;53.126;6.878;2023-04-03T14:35:01;12.00;91.30
52103;DHT22;38101;53.126;6.878;2023-04-03T14:37:29;11.90;91.60
52103;DHT22;38101;53.126;6.878;2023-04-03T14:39:56;12.00;91.50
52103;DHT22;38101;53.126;6.878;2023-04-03T14:42:29;12.10;92.00
52103;DHT22;38101;53.126;6.878;2023-04-03T14:44:56;12.10;91.20
52103;DHT22;38101;53.126;6.878;2023-04-03T14:47:28;12.10;91.00
52103;DHT22;38101;53.126;6.878;2023-04-03T14:49:54;12.10;91.40
52103;DHT22;38101;53.126;6.878;2023-04-03T14:54:48;12.10;91.20
52103;DHT22;38101;53.126;6.878;2023-04-03T14:57:15;12.10;92.40
52103;DHT22;38101;53.126;6.878;2023-04-03T14:59:42;12.10;92.40
52103;DHT22;38101;53.126;6.878;2023-04-03T15:02:27;12.20;92.30
52103;DHT22;38101;53.126;6.878;2023-04-03T15:04:55;12.20;92.10
52103;DHT22;38101;53.126;6.878;2023-04-03T15:07:22;12.20;93.00
52103;DHT22;38101;53.126;6.878;2023-04-03T15:09:49;12.20;92.90
52103;DHT22;38101;53.126;6.878;2023-04-03T15:12:15;12.20;92.40
52103;DHT22;38101;53.126;6.878;2023-04-03T15:14:41;12.10;93.10
52103;DHT22;38101;53.126;6.878;2023-04-03T15:17:13;12.20;93.50
52103;DHT22;38101;53.126;6.878;2023-04-03T15:19:40;12.10;93.00
52103;DHT22;38101;53.126;6.878;2023-04-03T15:22:06;12.10;93.90
52103;DHT22;38101;53.126;6.878;2023-04-03T15:24:32;12.10;93.90
52103;DHT22;38101;53.126;6.878;2023-04-03T15:26:58;12.10;92.00
52103;DHT22;38101;53.126;6.878;2023-04-03T15:29:25;12.00;91.60
52103;DHT22;38101;53.126;6.878;2023-04-03T15:31:51;12.00;92.00
52103;DHT22;38101;53.126;6.878;2023-04-03T15:34:19;12.00;91.80
52103;DHT22;38101;53.126;6.878;2023-04-03T15:36:46;12.00;91.60
52103;DHT22;38101;53.126;6.878;2023-04-03T15:39:12;11.90;91.90
52103;DHT22;38101;53.126;6.878;2023-04-03T15:41:38;11.90;92.30
52103;DHT22;38101;53.126;6.878;2023-04-03T15:44:04;11.90;92.60
52103;DHT22;38101;53.126;6.878;2023-04-03T15:46:29;11.90;92.60
52103;DHT22;38101;53.126;6.878;2023-04-03T15:48:55;11.90;92.20
52103;DHT22;38101;53.126;6.878;2023-04-03T15:51:21;12.00;92.70
52103;DHT22;38101;53.126;6.878;2023-04-03T15:53:46;12.00;91.80
52103;DHT22;38101;53.126;6.878;2023-04-03T15:56:12;12.00;92.00
52103;DHT22;38101;53.126;6.878;2023-04-03T15:58:38;12.00;93.00
52103;DHT22;38101;53.126;6.878;2023-04-03T16:01:03;12.00;92.80
52103;DHT22;38101;53.126;6.878;2023-04-03T16:03:29;12.10;92.30
52103;DHT22;38101;53.126;6.878;2023-04-03T16:05:56;12.10;90.40
52103;DHT22;38101;53.126;6.878;2023-04-03T16:08:22;12.10;90.90
52103;DHT22;38101;53.126;6.878;2023-04-03T16:10:48;12.00;91.10
52103;DHT22;38101;53.126;6.878;2023-04-03T16:13:14;12.10;91.10
52103;DHT22;38101;53.126;6.878;2023-04-03T16:15:40;12.10;91.20
52103;DHT22;38101;53.126;6.878;2023-04-03T16:18:08;12.20;92.80
52103;DHT22;38101;53.126;6.878;2023-04-03T16:20:34;12.30;91.90
52103;DHT22;38101;53.126;6.878;2023-04-03T16:23:00;12.30;92.00
52103;DHT22;38101;53.126;6.878;2023-04-03T16:25:26;12.40;92.20
52103;DHT22;38101;53.126;6.878;2023-04-03T16:27:52;12.40;91.60
52103;DHT22;38101;53.126;6.878;2023-04-03T16:30:18;12.40;90.90
52103;DHT22;38101;53.126;6.878;2023-04-03T16:32:44;12.30;91.40
52103;DHT22;38101;53.126;6.878;2023-04-03T16:35:10;12.40;92.00
52103;DHT22;38101;53.126;6.878;2023-04-03T16:37:37;12.40;90.70
52103;DHT22;38101;53.126;6.878;2023-04-03T16:40:05;12.40;90.80
52103;DHT22;38101;53.126;6.878;2023-04-03T16:42:31;12.50;90.90
52103;DHT22;38101;53.126;6.878;2023-04-03T16:44:57;12.50;90.60
52103;DHT22;38101;53.126;6.878;2023-04-03T16:47:25;12.40;90.60
52103;DHT22;38101;53.126;6.878;2023-04-03T16:49:51;12.40;90.40
52103;DHT22;38101;53.126;6.878;2023-04-03T16:52:17;12.40;90.40
52103;DHT22;38101;53.126;6.878;2023-04-03T16:54:42;12.50;90.50
52103;DHT22;38101;53.126;6.878;2023-04-03T16:57:08;12.40;90.60
52103;DHT22;38101;53.126;6.878;2023-04-03T16:59:34;12.30;90.80
52103;DHT22;38101;53.126;6.878;2023-04-03T17:02:00;12.30;91.00
52103;DHT22;38101;53.126;6.878;2023-04-03T17:04:26;12.30;91.20
52103;DHT22;38101;53.126;6.878;2023-04-03T17:06:51;12.30;90.60
52103;DHT22;38101;53.126;6.878;2023-04-03T17:09:17;12.20;90.80
52103;DHT22;38101;53.126;6.878;2023-04-03T17:11:43;12.20;91.80
52103;DHT22;38101;53.126;6.878;2023-04-03T17:14:09;12.20;92.10
52103;DHT22;38101;53.126;6.878;2023-04-03T17:16:36;12.10;91.90
52103;DHT22;38101;53.126;6.878;2023-04-03T17:19:02;11.90;91.50
52103;DHT22;38101;53.126;6.878;2023-04-03T17:21:29;11.80;90.60
52103;DHT22;38101;53.126;6.878;2023-04-03T17:23:58;11.70;90.40
52103;DHT22;38101;53.126;6.878;2023-04-03T17:26:24;11.60;91.00
52103;DHT22;38101;53.126;6.878;2023-04-03T17:28:51;11.50;91.50
52103;DHT22;38101;53.126;6.878;2023-04-03T17:31:17;11.40;91.70
52103;DHT22;38101;53.126;6.878;2023-04-03T17:33:42;11.20;92.30
52103;DHT22;38101;53.126;6.878;2023-04-03T17:36:08;11.00;92.90
52103;DHT22;38101;53.126;6.878;2023-04-03T17:38:35;10.90;93.40
52103;DHT22;38101;53.126;6.878;2023-04-03T17:41:03;10.70;94.00
52103;DHT22;38101;53.126;6.878;2023-04-03T17:43:29;10.50;93.90
52103;DHT22;38101;53.126;6.878;2023-04-03T17:46:00;10.30;93.50